Time;durP1;ratioP1;P1;durP2;ratioP2;P2;SDS_P1;SDS_P2;PMS_P1;PMS_P2;Temp;Humidity;BMP_temperature;BMP_pressure;BME280_temperature;BME280_humidity;BME280_pressure;Samples;Min_cycle;Max_cycle;Signal;HPM_P1;HPM_P2
2022/01/04 00:00:14;;;;;;;10.13;5.97;;;;;;;7.18;71.36;98680.72;4958207;29;20169;-85
2022/01/04 00:02:41;;;;;;;10.00;5.80;;;;;;;9.17;71.85;98996.31;4958939;29;20175;-85
2022/01/04 00:05:07;;;;;;;12.87;6.47;;;;;;;8.49;71.59;98889.03;4959796;29;20172;-85
2022/01/04 00:07:33;;;;;;;12.17;6.70;;;;;;;10.46;72.21;99226.75;4942727;29;20180;-86
2022/01/04 00:10:00;;;;;;;10.53;6.23;;;;;;;10.35;72.15;99218.72;4958735;29;20219;-86
2022/01/04 00:15:11;;;;;;;11.80;6.10;;;;;;;5.91;72.81;98494.63;4969388;29;20196;-86
2022/01/04 00:17:37;;;;;;;11.27;5.97;;;;;;;6.22;73.19;98542.16;4970618;29;20295;-84
2022/01/04 00:20:05;;;;;;;13.77;7.13;;;;;;;5.96;72.76;98519.13;4973576;29;20168;-84
2022/01/04 00:22:30;;;;;;;11.87;7.13;;;;;;;9.55;73.22;99123.38;4955888;29;20187;-85
2022/01/04 00:24:56;;;;;;;13.00;7.03;;;;;;;6.31;73.09;98600.41;4952684;29;20169;-85
2022/01/04 00:27:21;;;;;;;13.20;7.87;;;;;;;5.85;72.96;98513.59;4962356;29;20161;-84
2022/01/04 00:29:48;;;;;;;11.67;6.57;;;;;;;8.08;73.19;98885.47;4962489;29;20180;-85
2022/01/04 00:32:13;;;;;;;14.80;8.10;;;;;;;7.80;73.43;98853.94;4945011;29;20177;-86
2022/01/04 00:34:40;;;;;;;12.67;7.10;;;;;;;7.53;73.61;98831.72;4961463;29;20165;-84
2022/01/04 00:37:06;;;;;;;11.90;7.03;;;;;;;6.64;73.62;98676.53;4967995;29;20213;-84
2022/01/04 00:39:31;;;;;;;12.07;7.00;;;;;;;7.21;74.34;98785.72;4965073;29;20219;-85
2022/01/04 00:41:57;;;;;;;11.07;6.70;;;;;;;6.92;73.90;98723.97;4962336;28;20220;-85
2022/01/04 00:44:22;;;;;;;9.87;5.83;;;;;;;7.81;73.52;98866.59;4975547;29;20184;-84
2022/01/04 00:46:48;;;;;;;11.77;6.63;;;;;;;7.67;73.70;98842.44;4975030;29;20157;-84
2022/01/04 00:49:17;;;;;;;11.90;7.27;;;;;;;9.10;74.28;99104.53;4973806;29;20652;-85
2022/01/04 00:51:45;;;;;;;13.43;7.37;;;;;;;9.76;74.47;99202.63;4964132;29;20157;-86
2022/01/04 00:54:13;;;;;;;13.43;7.23;;;;;;;9.85;74.69;99236.78;4946608;29;20172;-85
2022/01/04 00:56:40;;;;;;;12.80;7.57;;;;;;;7.69;74.57;98861.84;4947523;29;20311;-84
2022/01/04 00:59:05;;;;;;;9.27;5.80;;;;;;;7.75;73.78;98845.31;4948832;29;20165;-84
2022/01/04 01:01:32;;;;;;;9.10;6.10;;;;;;;10.06;73.55;99212.41;4943956;29;20173;-84
2022/01/04 01:03:58;;;;;;;9.43;5.07;;;;;;;6.76;72.90;98671.19;4959230;29;20205;-84
2022/01/04 01:06:24;;;;;;;10.90;6.30;;;;;;;8.76;73.62;99017.22;4960668;29;20172;-84
2022/01/04 01:08:50;;;;;;;11.17;6.30;;;;;;;9.83;73.35;99210.53;4960104;29;20176;-84
2022/01/04 01:11:15;;;;;;;11.53;5.73;;;;;;;9.26;73.49;99117.03;4968802;29;20165;-85
2022/01/04 01:13:43;;;;;;;10.17;4.93;;;;;;;8.25;73.14;98919.00;4962051;29;20208;-84
2022/01/04 01:16:09;;;;;;;9.80;5.70;;;;;;;10.37;71.42;99221.31;4946532;29;20185;-86
2022/01/04 01:18:35;;;;;;;9.47;6.03;;;;;;;10.06;70.79;99176.13;4958359;29;20736;-85
2022/01/04 01:21:03;;;;;;;11.53;6.37;;;;;;;8.28;72.36;98925.09;4958152;29;20173;-84
2022/01/04 01:23:28;;;;;;;12.67;6.50;;;;;;;10.02;73.18;99227.41;4942641;29;20177;-85
2022/01/04 01:25:54;;;;;;;10.63;6.27;;;;;;;9.22;74.09;99142.97;4958237;29;20173;-85
2022/01/04 01:28:21;;;;;;;9.73;5.70;;;;;;;9.79;74.18;99241.56;4942226;29;20183;-84
2022/01/04 01:30:47;;;;;;;12.03;6.97;;;;;;;8.42;74.20;99015.63;4959865;29;20645;-86
2022/01/04 01:33:14;;;;;;;9.03;6.00;;;;;;;9.75;73.92;99229.56;4962021;29;20220;-84
2022/01/04 01:35:40;;;;;;;9.90;5.70;;;;;;;9.72;74.50;99216.81;4959088;29;20192;-85
2022/01/04 01:38:08;;;;;;;8.83;5.00;;;;;;;9.74;73.78;99212.69;4958802;29;20188;-85
2022/01/04 01:40:37;;;;;;;8.83;4.83;;;;;;;9.79;73.97;99217.94;4941684;29;20238;-85
2022/01/04 01:43:04;;;;;;;11.07;5.33;;;;;;;9.01;73.36;99044.41;4959233;29;20252;-85
2022/01/04 01:45:30;;;;;;;8.27;5.00;;;;;;;7.22;71.80;98745.53;4957152;29;20259;-85
2022/01/04 01:47:57;;;;;;;7.33;4.13;;;;;;;8.75;71.95;98962.50;4958590;29;20173;-85
2022/01/04 01:50:22;;;;;;;10.33;4.30;;;;;;;9.84;71.77;99133.91;4957269;29;20179;-84
2022/01/04 01:52:49;;;;;;;8.90;5.20;;;;;;;10.18;71.75;99191.00;4959923;29;20165;-85
2022/01/04 01:55:18;;;;;;;9.43;4.80;;;;;;;9.28;72.29;99025.41;4941988;29;20185;-85
2022/01/04 01:57:43;;;;;;;7.37;5.13;;;;;;;10.11;71.92;99189.81;4958211;29;20196;-85
2022/01/04 02:00:11;;;;;;;9.60;5.43;;;;;;;10.14;72.18;99184.94;4941160;29;20185;-85
2022/01/04 02:02:38;;;;;;;8.33;5.60;;;;;;;8.95;72.31;99001.25;4958757;29;20231;-84
2022/01/04 02:05:04;;;;;;;7.90;5.60;;;;;;;10.16;72.08;99202.72;4957056;29;20187;-84
2022/01/04 02:07:31;;;;;;;9.10;5.80;;;;;;;10.20;72.27;99200.38;4942268;29;20176;-85
2022/01/04 02:10:04;;;;;;;14.20;7.80;;;;;;;10.08;72.73;99207.41;4943316;29;20581;-85
2022/01/04 02:12:31;;;;;;;16.83;9.60;;;;;;;9.83;74.38;99202.97;4957197;29;20190;-86
2022/01/04 02:14:57;;;;;;;16.03;10.00;;;;;;;6.22;75.83;98650.22;4959249;29;20184;-84
2022/01/04 02:17:23;;;;;;;16.87;9.97;;;;;;;5.61;76.22;98568.47;4964126;29;20550;-85
2022/01/04 02:19:48;;;;;;;11.23;6.90;;;;;;;6.67;77.97;98831.72;4957122;29;20184;-84
2022/01/04 02:22:14;;;;;;;12.83;6.67;;;;;;;8.72;79.42;99209.66;4957117;29;20793;-84
2022/01/04 02:24:39;;;;;;;12.50;7.37;;;;;;;5.65;80.81;98758.66;4956387;29;20188;-84
2022/01/04 02:27:05;;;;;;;12.23;7.30;;;;;;;5.32;81.92;98739.28;4964357;29;20153;-86
2022/01/04 02:29:30;;;;;;;12.93;7.87;;;;;;;6.72;82.20;98986.25;4965812;29;20186;-86
2022/01/04 02:31:55;;;;;;;11.40;7.20;;;;;;;7.62;83.32;99151.19;4958527;29;20161;-85
2022/01/04 02:34:21;;;;;;;13.33;7.57;;;;;;;5.91;84.89;98909.06;4940605;28;20184;-85
2022/01/04 02:36:46;;;;;;;15.87;7.10;;;;;;;7.67;86.03;99223.69;4940156;29;20303;-85
2022/01/04 02:39:12;;;;;;;14.10;7.50;;;;;;;6.11;86.85;98997.22;4955975;29;20693;-85
2022/01/04 02:41:37;;;;;;;13.43;7.23;;;;;;;5.75;86.47;98929.09;4956270;28;20315;-85
2022/01/04 02:44:04;;;;;;;14.23;7.80;;;;;;;6.60;88.53;99087.06;4956739;29;20645;-86
2022/01/04 02:46:29;;;;;;;12.33;6.77;;;;;;;5.62;88.60;98916.66;4925205;29;20638;-85
2022/01/04 02:48:55;;;;;;;13.97;7.93;;;;;;;5.52;88.35;98943.69;4957480;29;20185;-84
2022/01/04 02:51:20;;;;;;;17.10;8.40;;;;;;;4.56;88.88;98776.88;4958787;29;20219;-85
2022/01/04 02:53:46;;;;;;;12.73;7.03;;;;;;;3.05;88.97;98527.75;4940234;29;20179;-85
2022/01/04 02:56:14;;;;;;;15.13;7.90;;;;;;;4.22;88.88;98710.56;4957499;29;20165;-85
2022/01/04 02:58:39;;;;;;;16.47;8.33;;;;;;;5.50;89.41;98970.31;4960524;29;20204;-82
2022/01/04 03:01:05;;;;;;;15.00;7.80;;;;;;;3.33;89.30;98578.59;4972855;29;20450;-82
2022/01/04 03:03:31;;;;;;;12.30;6.80;;;;;;;5.72;90.01;99003.38;4964251;29;20253;-84
2022/01/04 03:05:57;;;;;;;17.80;8.00;;;;;;;7.18;89.96;99236.97;4957785;29;20176;-85
2022/01/04 03:08:23;;;;;;;11.03;7.13;;;;;;;7.23;89.39;99240.59;4943746;29;20172;-84
2022/01/04 03:10:49;;;;;;;14.63;7.60;;;;;;;5.45;88.99;98941.59;4967414;29;20160;-85
2022/01/04 03:13:16;;;;;;;13.47;7.00;;;;;;;4.41;87.65;98715.84;4940755;29;20440;-84
2022/01/04 03:15:43;;;;;;;13.60;6.70;;;;;;;5.48;87.64;98902.47;4957632;29;20164;-85
2022/01/04 03:18:09;;;;;;;11.33;5.80;;;;;;;4.04;86.48;98633.63;4954911;29;20275;-85
2022/01/04 03:20:34;;;;;;;11.37;6.27;;;;;;;5.81;86.29;98909.34;4955931;29;20184;-85
2022/01/04 03:23:00;;;;;;;11.20;6.27;;;;;;;7.81;84.96;99228.56;4956691;29;20664;-85
2022/01/04 03:25:26;;;;;;;11.03;6.30;;;;;;;6.41;85.18;98983.78;4956362;29;20184;-84
2022/01/04 03:27:51;;;;;;;12.43;6.10;;;;;;;7.20;84.74;99159.88;4954224;29;20189;-84
2022/01/04 03:30:18;;;;;;;14.53;6.50;;;;;;;7.77;84.14;99211.56;4955935;29;20228;-84
2022/01/04 03:32:44;;;;;;;10.23;5.97;;;;;;;7.16;83.83;99107.66;4956470;29;20243;-84
2022/01/04 03:35:10;;;;;;;12.20;6.20;;;;;;;7.81;83.57;99205.88;4958594;29;20259;-84
2022/01/04 03:37:36;;;;;;;12.07;6.13;;;;;;;6.85;83.56;99049.84;4956736;29;20193;-85
2022/01/04 03:40:03;;;;;;;11.20;5.70;;;;;;;7.18;82.73;99121.19;4955940;29;20642;-85
2022/01/04 03:42:29;;;;;;;10.03;5.70;;;;;;;6.00;82.36;98877.69;4955546;28;20265;-84
2022/01/04 03:44:54;;;;;;;12.27;6.30;;;;;;;5.86;82.67;98890.38;4940317;29;20192;-84
2022/01/04 03:47:19;;;;;;;11.57;6.20;;;;;;;7.44;83.00;99147.72;4941305;29;20247;-85
2022/01/04 03:49:45;;;;;;;12.90;6.30;;;;;;;6.28;81.99;98916.03;4957251;29;20169;-85
2022/01/04 03:52:11;;;;;;;10.30;6.10;;;;;;;5.41;80.96;98781.59;4958306;29;20214;-84
2022/01/04 03:54:38;;;;;;;9.27;5.80;;;;;;;7.54;80.29;99076.88;4968227;29;20192;-85
2022/01/04 03:57:06;;;;;;;11.30;6.00;;;;;;;7.71;78.67;99102.13;4947570;29;20215;-84
2022/01/04 03:59:31;;;;;;;10.03;5.80;;;;;;;8.10;76.49;99115.81;4964668;29;20172;-85
2022/01/04 04:01:57;;;;;;;12.97;7.90;;;;;;;7.44;76.31;98996.63;4964774;29;20180;-86
2022/01/04 04:04:22;;;;;;;12.90;6.73;;;;;;;6.81;76.00;98881.06;4955908;29;20714;-85
2022/01/04 04:06:49;;;;;;;9.37;6.27;;;;;;;6.33;75.42;98812.44;4933721;29;20188;-85
2022/01/04 04:09:15;;;;;;;10.47;6.10;;;;;;;8.53;74.50;99136.44;4946480;29;20259;-86
2022/01/04 04:11:40;;;;;;;10.77;5.63;;;;;;;5.58;73.33;98600.06;4955163;29;20180;-86
2022/01/04 04:14:06;;;;;;;25.23;12.90;;;;;;;6.25;73.77;98720.72;4937921;29;20723;-84
2022/01/04 04:16:33;;;;;;;122.93;67.47;;;;;;;6.63;75.36;98820.66;4955318;29;20195;-84
2022/01/04 04:19:01;;;;;;;43.23;26.03;;;;;;;8.07;76.77;99122.38;4955747;29;20177;-85
2022/01/04 04:21:27;;;;;;;33.50;21.33;;;;;;;6.09;77.93;98823.78;4957418;29;20180;-85
2022/01/04 04:23:52;;;;;;;33.73;17.47;;;;;;;7.03;78.81;98994.59;4959701;29;20263;-86
2022/01/04 04:26:18;;;;;;;23.97;14.57;;;;;;;8.27;80.35;99232.66;4956024;29;20561;-85
2022/01/04 04:28:43;;;;;;;18.87;10.27;;;;;;;8.08;80.97;99257.69;4939064;29;20196;-85
2022/01/04 04:31:10;;;;;;;21.97;11.10;;;;;;;7.93;81.39;99229.19;4938772;29;20187;-86
2022/01/04 04:33:35;;;;;;;26.83;14.27;;;;;;;6.59;80.89;99004.00;4955792;29;20223;-85
2022/01/04 04:36:01;;;;;;;21.50;12.30;;;;;;;5.98;81.81;98950.47;4955852;29;20161;-85
2022/01/04 04:38:27;;;;;;;20.07;12.37;;;;;;;7.63;82.15;99231.00;4954266;29;20750;-85
2022/01/04 04:40:54;;;;;;;32.10;18.13;;;;;;;7.72;81.66;99234.00;4937991;29;20618;-85
2022/01/04 04:43:19;;;;;;;35.77;17.23;;;;;;;5.87;82.45;98911.34;4940034;29;20184;-86
2022/01/04 04:45:44;;;;;;;24.57;13.17;;;;;;;6.28;80.19;98939.53;4955295;29;20619;-85
2022/01/04 04:48:10;;;;;;;20.93;12.27;;;;;;;7.73;79.79;99148.41;4937899;29;20181;-86
2022/01/04 04:50:35;;;;;;;16.87;9.63;;;;;;;6.27;78.09;98871.59;4953490;29;20180;-84
2022/01/04 04:53:02;;;;;;;17.27;7.60;;;;;;;7.81;77.66;99120.22;4955540;29;20160;-86
2022/01/04 04:55:30;;;;;;;12.77;6.47;;;;;;;8.50;77.21;99247.28;4938912;29;20173;-85
2022/01/04 04:57:56;;;;;;;20.77;11.73;;;;;;;7.93;76.77;99167.06;4937770;29;20231;-84
2022/01/04 05:00:24;;;;;;;35.97;16.60;;;;;;;6.51;75.58;98871.19;4958299;29;20188;-84
2022/01/04 05:02:49;;;;;;;12.67;7.30;;;;;;;8.60;75.89;99234.31;4941772;29;20204;-84
2022/01/04 05:05:16;;;;;;;11.33;6.40;;;;;;;5.65;76.25;98787.91;4950798;29;20177;-84
2022/01/04 05:07:42;;;;;;;17.20;10.33;;;;;;;5.74;76.40;98793.41;4941809;29;20182;-85
2022/01/04 05:10:09;;;;;;;10.03;5.43;;;;;;;8.29;77.97;99236.97;4942741;29;20200;-84
2022/01/04 05:12:36;;;;;;;8.83;4.80;;;;;;;8.18;78.39;99238.09;4940086;29;20192;-84
2022/01/04 05:15:03;;;;;;;9.40;4.90;;;;;;;8.23;78.33;99228.22;4940200;29;20230;-84
2022/01/04 05:17:31;;;;;;;10.77;6.23;;;;;;;8.12;78.87;99229.34;4940610;29;20228;-84
2022/01/04 05:19:56;;;;;;;16.63;8.20;;;;;;;6.74;78.80;98998.09;4915114;29;20185;-82
2022/01/04 05:22:23;;;;;;;9.17;4.90;;;;;;;5.31;80.85;98787.75;4947898;29;20253;-83
2022/01/04 05:24:48;;;;;;;13.07;7.37;;;;;;;7.68;80.85;99210.31;4924704;29;20185;-84
2022/01/04 05:27:14;;;;;;;9.17;4.60;;;;;;;7.77;81.06;99224.16;4923765;29;20549;-84
2022/01/04 05:29:40;;;;;;;9.80;5.50;;;;;;;7.01;81.73;99096.78;4923188;29;20180;-84
2022/01/04 05:32:07;;;;;;;18.30;11.13;;;;;;;5.21;80.91;98783.88;4926345;29;20185;-85
2022/01/04 05:34:32;;;;;;;39.53;23.03;;;;;;;5.52;81.75;98866.69;4929435;29;20637;-84
2022/01/04 05:36:58;;;;;;;74.40;36.17;;;;;;;5.38;81.31;98845.88;4942395;29;20276;-85
2022/01/04 05:39:23;;;;;;;42.27;23.70;;;;;;;7.84;81.68;99259.84;4944976;29;20169;-85
2022/01/04 05:41:50;;;;;;;53.47;31.23;;;;;;;7.43;83.54;99247.59;4936120;29;20286;-85
2022/01/04 05:44:15;;;;;;;39.07;19.73;;;;;;;6.29;83.60;99071.94;4921392;29;20193;-85
2022/01/04 05:46:42;;;;;;;42.57;20.33;;;;;;;5.35;83.50;98907.59;4920357;29;20174;-85
2022/01/04 05:49:09;;;;;;;36.77;15.93;;;;;;;4.27;84.88;98759.28;4922075;29;20632;-85
2022/01/04 05:51:37;;;;;;;24.37;12.90;;;;;;;4.98;84.40;98904.66;4921731;29;20194;-85
2022/01/04 05:54:02;;;;;;;24.37;11.17;;;;;;;4.93;85.20;98918.56;4920380;29;20277;-85
2022/01/04 05:56:29;;;;;;;19.50;10.20;;;;;;;7.01;85.17;99242.75;4919212;29;20509;-84
2022/01/04 05:58:56;;;;;;;15.77;8.17;;;;;;;5.28;84.12;98923.94;4919588;29;20589;-84
2022/01/04 06:01:23;;;;;;;24.07;13.80;;;;;;;6.72;83.75;99157.28;4918075;29;20723;-84
2022/01/04 06:03:51;;;;;;;20.33;11.27;;;;;;;7.24;83.81;99236.44;4917863;29;20181;-84
2022/01/04 06:06:18;;;;;;;28.90;14.23;;;;;;;6.25;83.11;99037.38;4919104;29;20194;-85
2022/01/04 06:08:44;;;;;;;33.07;15.97;;;;;;;6.59;82.48;99084.47;4911251;29;20166;-85
2022/01/04 06:11:28;;;;;;;41.77;22.93;;;;;;;4.68;81.33;98760.88;4926886;29;20174;-86
2022/01/04 06:16:38;;;;;;;57.97;29.17;;;;;;;4.23;81.20;98649.69;4925000;29;20180;-85
2022/01/04 06:19:03;;;;;;;34.57;15.37;;;;;;;5.73;79.82;98932.28;4925579;29;20170;-84
2022/01/04 06:21:29;;;;;;;129.77;74.77;;;;;;;6.33;80.46;99023.59;4925861;29;20158;-85
2022/01/04 06:23:54;;;;;;;98.37;55.17;;;;;;;4.87;79.92;98794.47;4941273;29;20702;-83
2022/01/04 06:26:20;;;;;;;75.17;44.57;;;;;;;5.26;79.30;98799.19;4939258;29;20177;-84
2022/01/04 06:28:45;;;;;;;96.90;47.30;;;;;;;5.86;78.92;98917.13;4926924;29;20173;-85
2022/01/04 06:31:10;;;;;;;125.07;56.13;;;;;;;5.78;78.64;98870.63;4924751;29;20182;-85
2022/01/04 06:33:36;;;;;;;98.53;46.13;;;;;;;5.68;78.49;98795.59;4923011;29;20617;-85
2022/01/04 06:36:01;;;;;;;36.37;19.00;;;;;;;6.36;77.13;98915.66;4921364;29;20174;-84
2022/01/04 06:38:27;;;;;;;32.27;17.07;;;;;;;6.70;76.75;98912.38;4934796;29;20671;-84
2022/01/04 06:40:52;;;;;;;30.60;14.47;;;;;;;5.71;75.65;98726.28;4928560;29;20233;-84
2022/01/04 06:43:20;;;;;;;22.03;13.20;;;;;;;6.46;74.78;98826.47;4944230;29;20172;-85
2022/01/04 06:45:45;;;;;;;19.57;10.97;;;;;;;5.20;74.33;98590.63;4939110;29;20197;-85
2022/01/04 06:48:12;;;;;;;19.90;11.30;;;;;;;7.38;75.27;98979.56;4939996;29;20193;-84
2022/01/04 06:50:37;;;;;;;69.47;35.63;;;;;;;5.57;74.84;98684.59;4926746;29;20536;-85
2022/01/04 06:53:03;;;;;;;67.80;33.97;;;;;;;6.79;75.45;98885.13;4941764;29;20261;-84
2022/01/04 06:55:28;;;;;;;61.10;33.50;;;;;;;6.36;74.74;98804.19;4922963;29;20275;-85
2022/01/04 06:57:54;;;;;;;42.67;21.83;;;;;;;7.48;74.55;98961.59;4937225;29;20319;-85
2022/01/04 07:00:19;;;;;;;68.33;33.23;;;;;;;7.60;74.57;98962.19;4940548;29;20685;-84
2022/01/04 07:02:46;;;;;;;83.73;38.73;;;;;;;9.69;73.96;99268.91;4939661;29;20170;-85
2022/01/04 07:05:12;;;;;;;73.97;36.40;;;;;;;9.75;73.83;99280.13;4943016;29;20182;-84
2022/01/04 07:07:37;;;;;;;81.37;40.63;;;;;;;10.01;72.73;99269.50;4934890;29;20248;-87
2022/01/04 07:10:03;;;;;;;101.53;50.73;;;;;;;9.65;71.65;99181.94;4948843;29;20244;-84
2022/01/04 07:12:29;;;;;;;92.70;44.73;;;;;;;9.14;70.16;99034.06;4931203;29;20189;-84
2022/01/04 07:14:54;;;;;;;44.83;21.47;;;;;;;7.62;69.18;98819.56;4930512;29;20189;-85
2022/01/04 07:17:20;;;;;;;64.03;29.77;;;;;;;6.58;70.13;98640.16;4928301;29;20292;-85
2022/01/04 07:19:47;;;;;;;35.80;17.40;;;;;;;6.29;69.17;98594.41;4928119;29;20178;-84
2022/01/04 07:22:12;;;;;;;45.73;23.30;;;;;;;5.83;69.45;98545.25;4929427;29;20178;-84
2022/01/04 07:24:38;;;;;;;37.83;17.90;;;;;;;6.60;67.96;98584.13;4930416;29;20177;-84
2022/01/04 07:27:05;;;;;;;36.67;16.17;;;;;;;6.66;66.06;98503.09;4943928;29;20181;-84
2022/01/04 07:29:30;;;;;;;39.13;20.03;;;;;;;11.30;65.85;99256.28;4928448;29;20173;-85
2022/01/04 07:31:56;;;;;;;40.80;18.10;;;;;;;7.21;65.99;98590.25;4929996;29;20188;-84
2022/01/04 07:34:22;;;;;;;51.17;27.23;;;;;;;6.79;67.42;98580.78;4944105;29;20172;-88
2022/01/04 07:36:48;;;;;;;56.40;31.40;;;;;;;7.33;67.97;98630.19;4928058;29;20280;-88
2022/01/04 07:39:14;;;;;;;66.20;35.93;;;;;;;8.94;68.65;98922.91;4925003;29;20253;-87
2022/01/04 07:41:39;;;;;;;60.90;33.20;;;;;;;8.89;69.60;98938.72;4938912;29;20221;-86
2022/01/04 07:44:06;;;;;;;68.10;38.33;;;;;;;9.97;69.19;99072.94;4921780;29;20193;-86
2022/01/04 07:46:31;;;;;;;47.33;24.43;;;;;;;8.77;69.42;98900.34;4937073;29;20554;-86
2022/01/04 07:48:57;;;;;;;30.73;15.50;;;;;;;8.66;69.28;98880.50;4934597;29;20189;-85
2022/01/04 07:51:22;;;;;;;53.40;24.60;;;;;;;8.34;69.47;98800.94;4919079;29;20264;-85
2022/01/04 07:53:47;;;;;;;71.03;31.17;;;;;;;8.71;69.45;98831.06;4936400;29;20173;-85
2022/01/04 07:56:13;;;;;;;35.13;20.63;;;;;;;10.49;69.11;99128.19;4950709;29;20185;-83
2022/01/04 07:58:45;;;;;;;60.23;31.20;;;;;;;9.31;69.42;98916.06;4945172;29;20201;-84
2022/01/04 08:01:11;;;;;;;35.17;19.70;;;;;;;9.10;68.43;98844.47;4947702;29;20566;-86
2022/01/04 08:03:37;;;;;;;67.47;34.77;;;;;;;9.92;67.96;98948.00;4956868;29;20173;-86
2022/01/04 08:06:02;;;;;;;45.43;23.90;;;;;;;10.11;66.50;98909.09;4938687;29;20173;-86
2022/01/04 08:08:27;;;;;;;78.33;36.73;;;;;;;10.30;65.61;98910.69;4955862;29;20239;-85
2022/01/04 08:10:53;;;;;;;56.17;27.57;;;;;;;11.73;64.43;99121.03;4954114;29;20180;-86
2022/01/04 08:13:19;;;;;;;26.80;15.13;;;;;;;11.86;64.89;99175.59;4954286;29;20171;-85
2022/01/04 08:15:44;;;;;;;39.70;18.77;;;;;;;10.54;64.37;98959.66;4956571;29;20247;-86
2022/01/04 08:18:10;;;;;;;45.13;20.73;;;;;;;11.05;64.00;98971.63;4955476;29;20673;-86
2022/01/04 08:20:35;;;;;;;59.77;23.67;;;;;;;10.23;64.26;98913.78;4955313;29;20179;-86
2022/01/04 08:23:02;;;;;;;395.30;139.40;;;;;;;12.68;64.26;99269.75;4957937;29;20224;-85
2022/01/04 08:25:28;;;;;;;54.53;32.07;;;;;;;9.84;64.36;98896.28;4940954;29;20263;-86
2022/01/04 08:27:53;;;;;;;35.40;16.70;;;;;;;11.69;65.89;99273.91;4957121;29;20184;-87
2022/01/04 08:30:19;;;;;;;33.27;15.17;;;;;;;11.09;65.00;99105.19;4955147;28;20657;-86
2022/01/04 08:32:45;;;;;;;16.40;10.10;;;;;;;10.45;65.16;99030.16;4955649;28;20176;-84
2022/01/04 08:35:11;;;;;;;22.00;12.10;;;;;;;11.72;66.31;99260.47;4963489;29;20561;-86
2022/01/04 08:37:37;;;;;;;53.80;30.73;;;;;;;10.03;66.29;98949.28;4965263;29;20188;-85
2022/01/04 08:40:05;;;;;;;36.67;20.07;;;;;;;10.69;64.94;98955.13;4963698;29;20173;-86
2022/01/04 08:42:31;;;;;;;21.30;12.27;;;;;;;12.94;64.21;99300.28;4944265;29;20232;-86
2022/01/04 08:44:57;;;;;;;25.73;14.50;;;;;;;9.98;64.69;98808.31;4961929;29;20187;-87
2022/01/04 08:47:24;;;;;;;26.73;14.50;;;;;;;10.72;64.22;98908.81;4943601;29;20169;-88
2022/01/04 08:49:50;;;;;;;23.50;13.70;;;;;;;9.91;63.60;98703.59;4960813;29;20625;-88
2022/01/04 08:52:15;;;;;;;106.53;51.40;;;;;;;11.24;62.75;98925.84;4962269;29;20173;-88
2022/01/04 08:54:41;;;;;;;115.93;52.53;;;;;;;10.65;62.09;98751.69;4946475;29;20250;-89
2022/01/04 08:57:06;;;;;;;46.00;22.37;;;;;;;11.47;61.56;98875.91;4946822;29;20201;-89
2022/01/04 08:59:33;;;;;;;39.67;20.40;;;;;;;12.39;61.45;98966.69;4942839;29;20580;-89
2022/01/04 09:01:59;;;;;;;41.13;23.93;;;;;;;12.27;60.63;98918.13;4942524;29;20168;-89
2022/01/04 09:04:24;;;;;;;23.30;13.53;;;;;;;14.35;59.75;99263.84;4963292;29;20241;-88
2022/01/04 09:06:50;;;;;;;16.53;10.10;;;;;;;14.66;58.33;99273.13;4960814;29;20164;-88
2022/01/04 09:09:15;;;;;;;15.33;10.20;;;;;;;12.37;57.55;98895.56;4958659;29;20184;-88
2022/01/04 09:11:41;;;;;;;18.90;10.83;;;;;;;13.64;57.77;99065.94;4957725;29;20554;-88
2022/01/04 09:19:25;;;;;;;16.67;8.40;;;;;;;13.35;55.63;98995.69;4959963;29;20212;-88
2022/01/04 09:21:50;;;;;;;13.80;8.30;;;;;;;13.40;55.76;98977.19;4942367;29;20200;-88
2022/01/04 09:24:17;;;;;;;12.73;8.80;;;;;;;12.35;54.87;98752.53;4958656;29;20268;-88
2022/01/04 09:26:44;;;;;;;13.70;7.63;;;;;;;13.97;53.94;98981.97;4951131;29;20177;-88
2022/01/04 09:29:10;;;;;;;14.00;8.00;;;;;;;12.28;53.37;98692.28;4941325;29;20189;-89
2022/01/04 09:31:35;;;;;;;17.20;8.57;;;;;;;14.35;53.36;99021.03;4945917;29;20203;-79
2022/01/04 09:34:02;;;;;;;13.67;7.93;;;;;;;15.30;52.96;99141.22;4957254;29;20188;-79
2022/01/04 09:36:39;;;;;;;14.43;7.90;;;;;;;15.89;52.28;99218.16;4957111;29;20638;-79
2022/01/04 09:39:08;;;;;;;12.10;7.50;;;;;;;15.98;52.10;99231.09;4950838;29;20231;-79
2022/01/04 09:41:35;;;;;;;22.03;13.63;;;;;;;15.13;52.79;99134.06;4956955;29;20244;-79
2022/01/04 09:44:01;;;;;;;15.97;8.37;;;;;;;15.21;52.87;99221.78;4956670;28;20200;-78
2022/01/04 09:46:29;;;;;;;15.60;8.97;;;;;;;14.84;53.17;99170.78;4957026;29;20653;-79
2022/01/04 09:48:55;;;;;;;16.33;9.37;;;;;;;15.25;52.86;99190.41;4956386;29;20180;-79
2022/01/04 09:51:21;;;;;;;16.63;9.07;;;;;;;15.31;52.17;99129.31;4956914;29;20548;-80
2022/01/04 09:53:46;;;;;;;21.17;10.73;;;;;;;16.04;51.29;99197.16;4936042;29;20706;-78
2022/01/04 09:56:12;;;;;;;25.20;16.73;;;;;;;15.50;52.06;99186.72;4937850;29;20197;-78
2022/01/04 09:58:38;;;;;;;15.13;9.27;;;;;;;15.20;52.18;99187.75;4937308;29;20286;-78
2022/01/04 10:01:04;;;;;;;10.87;7.53;;;;;;;15.04;52.35;99187.38;4939048;29;20236;-78
2022/01/04 10:03:31;;;;;;;14.23;9.27;;;;;;;15.24;52.50;99187.00;4937338;29;20171;-79
2022/01/04 10:06:14;;;;;;;23.63;15.33;;;;;;;15.53;52.18;99162.13;4953508;29;20565;-79
2022/01/04 10:08:59;;;;;;;26.53;16.23;;;;;;;16.23;50.79;99174.53;4950768;29;20232;-79
2022/01/04 10:11:50;;;;;;;13.93;7.80;;;;;;;16.56;49.81;99148.72;4937427;29;20311;-79
2022/01/04 10:14:26;;;;;;;17.13;9.23;;;;;;;16.88;49.79;99167.97;4937225;29;20193;-79
2022/01/04 10:16:57;;;;;;;28.33;16.00;;;;;;;16.98;49.75;99166.38;4937207;29;20193;-79
2022/01/04 10:19:34;;;;;;;24.40;14.17;;;;;;;17.32;49.08;99167.72;4937346;29;20177;-78
2022/01/04 10:22:09;;;;;;;14.83;8.23;;;;;;;17.18;48.28;99169.22;4937110;29;20210;-78
2022/01/04 10:24:34;;;;;;;18.30;11.57;;;;;;;16.14;49.38;99072.22;4937012;29;20185;-78
2022/01/04 10:27:21;;;;;;;13.30;7.73;;;;;;;17.02;48.80;99147.69;4936602;29;20244;-78
2022/01/04 10:29:48;;;;;;;18.30;9.63;;;;;;;16.85;48.29;99127.00;4936578;29;20272;-78
2022/01/04 10:32:14;;;;;;;38.10;19.13;;;;;;;16.88;48.53;99086.13;4937047;29;20169;-79
2022/01/04 10:34:48;;;;;;;17.80;10.40;;;;;;;17.26;47.28;99134.34;4937481;29;20169;-78
2022/01/04 10:37:39;;;;;;;14.80;8.23;;;;;;;17.38;47.16;99127.72;4937300;29;20196;-78
2022/01/04 10:40:07;;;;;;;12.33;7.63;;;;;;;17.11;46.87;99083.88;4938835;29;20604;-78
2022/01/04 10:42:33;;;;;;;13.47;8.10;;;;;;;17.87;45.78;99120.59;4938208;29;20217;-79
2022/01/04 10:44:58;;;;;;;13.50;6.63;;;;;;;17.75;44.39;99034.25;4937520;29;20189;-79
2022/01/04 10:47:29;;;;;;;10.47;7.13;;;;;;;18.22;42.64;99080.78;4936749;29;20268;-79
2022/01/04 10:49:55;;;;;;;13.50;8.10;;;;;;;18.39;41.99;99111.69;4949177;29;20200;-79
2022/01/04 10:52:31;;;;;;;12.03;7.10;;;;;;;18.24;41.31;99094.47;4955939;29;20177;-79
2022/01/04 10:55:14;;;;;;;14.53;8.77;;;;;;;17.74;41.43;99060.75;4934330;29;20232;-79
2022/01/04 10:57:40;;;;;;;12.53;7.73;;;;;;;18.00;41.02;99082.31;4936149;29;20621;-79
2022/01/04 11:00:16;;;;;;;11.63;7.00;;;;;;;17.65;41.67;99079.41;4937238;29;20173;-80
2022/01/04 11:02:42;;;;;;;13.20;7.47;;;;;;;17.95;41.14;99053.25;4919882;29;20192;-79
2022/01/04 11:05:15;;;;;;;14.50;7.73;;;;;;;18.48;40.20;99073.34;4936918;29;20161;-79
2022/01/04 11:08:01;;;;;;;17.57;8.90;;;;;;;18.29;39.67;99034.72;4938701;29;20558;-79
2022/01/04 11:10:29;;;;;;;16.03;9.17;;;;;;;17.41;40.01;98847.97;4940137;29;20181;-79
2022/01/04 11:12:58;;;;;;;16.67;10.57;;;;;;;18.31;39.47;99003.13;4937378;29;20197;-78
2022/01/04 11:15:27;;;;;;;16.63;8.80;;;;;;;18.73;38.96;99070.09;4936180;29;20324;-79
2022/01/04 11:17:53;;;;;;;15.50;8.83;;;;;;;18.58;38.71;99070.84;4936216;29;20670;-79
2022/01/04 11:20:20;;;;;;;16.53;8.60;;;;;;;18.67;38.20;99067.47;4936140;29;20237;-80
2022/01/04 11:22:47;;;;;;;12.97;8.10;;;;;;;18.79;37.74;99062.41;4935836;29;20181;-78
2022/01/04 11:25:15;;;;;;;14.10;7.37;;;;;;;18.79;35.98;99055.56;4934101;29;20196;-78
2022/01/04 11:27:42;;;;;;;11.83;7.37;;;;;;;18.42;36.53;99019.44;4935326;29;20196;-79
2022/01/04 11:30:12;;;;;;;9.60;6.60;;;;;;;18.25;36.63;99011.63;4935850;29;20196;-78
2022/01/04 11:32:41;;;;;;;12.00;6.90;;;;;;;18.24;36.32;98995.38;4936566;29;20193;-79
2022/01/04 11:35:16;;;;;;;12.80;7.33;;;;;;;18.45;36.17;99050.22;4936378;29;20161;-78